Time;durP1;ratioP1;P1;durP2;ratioP2;P2;SDS_P1;SDS_P2;PMS_P1;PMS_P2;Temp;Humidity;BMP_temperature;BMP_pressure;BME280_temperature;BME280_humidity;BME280_pressure;Samples;Min_cycle;Max_cycle;Signal;HPM_P1;HPM_P2
2022/06/10 00:00:04;;;;;;;;;;;;;;;-142.75;100.00;77231.75;5010171;28;19921;-72
2022/06/10 00:02:29;;;;;;;;;;;;;;;-142.75;100.00;77225.84;5010425;28;19918;-71
2022/06/10 00:04:55;;;;;;;;;;;;;;;-142.75;100.00;77212.06;5010368;28;19925;-73
2022/06/10 00:07:20;;;;;;;;;;;;;;;-142.75;100.00;77210.09;5010324;28;19968;-71
2022/06/10 00:09:45;;;;;;;;;;;;;;;-142.75;100.00;77200.25;5010248;28;20310;-71
2022/06/10 00:12:10;;;;;;;;;;;;;;;-142.75;100.00;77200.25;5010441;28;19935;-69
2022/06/10 00:14:35;;;;;;;;;;;;;;;-142.75;100.00;77194.34;5010431;28;19918;-69
2022/06/10 00:17:01;;;;;;;;;;;;;;;-142.75;100.00;77198.28;5010297;28;19917;-71
2022/06/10 00:19:27;;;;;;;;;;;;;;;-142.75;100.00;77190.41;5010543;28;19921;-72
2022/06/10 00:21:52;;;;;;;;;;;;;;;-142.75;100.00;77192.38;5010326;28;20004;-71
2022/06/10 00:24:17;;;;;;;;;;;;;;;-142.75;100.00;77196.31;5010984;28;19994;-71
2022/06/10 00:26:42;;;;;;;;;;;;;;;-142.75;100.00;77188.44;4996216;28;20298;-73
2022/06/10 00:29:07;;;;;;;;;;;;;;;-142.75;100.00;77192.38;5013550;28;19924;-71
2022/06/10 00:31:33;;;;;;;;;;;;;;;-142.75;100.00;77182.53;5014031;28;19921;-71
2022/06/10 00:33:58;;;;;;;;;;;;;;;-142.75;100.00;77184.50;4996749;28;20016;-71
2022/06/10 00:36:23;;;;;;;;;;;;;;;-142.75;100.00;77176.63;5014358;28;19967;-71
2022/06/10 00:38:48;;;;;;;;;;;;;;;-142.75;100.00;77172.69;5014040;28;19932;-71
2022/06/10 00:41:14;;;;;;;;;;;;;;;-142.75;100.00;77184.50;5014201;28;20052;-71
2022/06/10 00:43:39;;;;;;;;;;;;;;;-142.75;100.00;77174.66;5014187;28;19925;-71
2022/06/10 00:46:13;;;;;;;;;;;;;;;-142.75;100.00;77180.56;5014192;28;20291;-72
2022/06/10 00:48:50;;;;;;;;;;;;;;;-142.75;100.00;77172.69;5013629;28;19973;-71
2022/06/10 00:51:19;;;;;;;;;;;;;;;-142.75;100.00;77168.75;5014369;28;20326;-71
2022/06/10 00:53:45;;;;;;;;;;;;;;;-142.75;100.00;77162.84;4996577;28;19971;-71
2022/06/10 00:56:14;;;;;;;;;;;;;;;-142.75;100.00;77162.84;5013940;28;20016;-69
2022/06/10 00:58:42;;;;;;;;;;;;;;;-142.75;100.00;77168.75;5013607;28;20000;-71
2022/06/10 01:01:09;;;;;;;;;;;;;;;-142.75;100.00;77170.72;5019349;28;19960;-71
2022/06/10 01:03:35;;;;;;;;;;;;;;;-142.75;100.00;77168.75;5033599;28;19921;-71
2022/06/10 01:06:00;;;;;;;;;;;;;;;-142.75;100.00;77170.72;5033458;28;20023;-71
2022/06/10 01:08:26;;;;;;;;;;;;;;;-142.75;100.00;77168.75;5033085;28;20016;-71
2022/06/10 01:11:17;;;;;;;;;;;;;;;-142.75;100.00;77158.91;5033331;28;20394;-69
2022/06/10 01:14:01;;;;;;;;;;;;;;;-142.75;100.00;77164.81;5033518;28;19917;-71
2022/06/10 01:16:34;;;;;;;;;;;;;;;-142.75;100.00;77166.78;5033233;28;19921;-70
2022/06/10 01:19:18;;;;;;;;;;;;;;;-142.75;100.00;77164.81;5032954;28;19917;-71
2022/06/10 01:21:52;;;;;;;;;;;;;;;-142.75;100.00;77156.94;5033305;28;19927;-71
2022/06/10 01:24:20;;;;;;;;;;;;;;;-142.75;100.00;77166.78;5033280;28;19917;-71
2022/06/10 01:30:11;;;;;;;;;;;;;;;-142.75;100.00;77156.94;5033372;28;19923;-72
2022/06/10 01:32:57;;;;;;;;;;;;;;;-142.75;100.00;77160.88;5015475;28;19953;-69
2022/06/10 01:35:42;;;;;;;;;;;;;;;-142.75;100.00;77149.06;5032701;28;20441;-71
2022/06/10 01:38:07;;;;;;;;;;;;;;;-142.75;100.00;77156.94;5021930;28;20441;-71
2022/06/10 01:40:37;;;;;;;;;;;;;;;-142.75;100.00;77154.97;5015236;28;19920;-71
2022/06/10 01:43:09;;;;;;;;;;;;;;;-142.75;100.00;77153.00;5032937;28;19917;-71
2022/06/10 01:45:37;;;;;;;;;;;;;;;-142.75;100.00;77151.03;5032926;28;20004;-71
2022/06/10 01:48:09;;;;;;;;;;;;;;;-142.75;100.00;77156.94;5032115;28;19921;-71
2022/06/10 01:50:41;;;;;;;;;;;;;;;-142.75;100.00;77153.00;5032831;28;19921;-68
2022/06/10 01:53:13;;;;;;;;;;;;;;;-142.75;100.00;77149.06;5015066;28;20433;-71
2022/06/10 01:55:42;;;;;;;;;;;;;;;-142.75;100.00;77145.13;5032604;28;19921;-72
2022/06/10 01:58:15;;;;;;;;;;;;;;;-142.75;100.00;77145.13;5032157;28;19975;-71
2022/06/10 02:00:43;;;;;;;;;;;;;;;-142.75;100.00;77141.19;5032497;28;20387;-68
2022/06/10 02:03:11;;;;;;;;;;;;;;;-142.75;100.00;77147.09;5032447;28;19924;-71
2022/06/10 02:05:41;;;;;;;;;;;;;;;-142.75;100.00;77153.00;5032426;28;19925;-71
2022/06/10 02:08:12;;;;;;;;;;;;;;;-142.75;100.00;77145.13;5032036;28;20400;-71
2022/06/10 02:10:41;;;;;;;;;;;;;;;-142.75;100.00;77149.06;5032407;28;20391;-72
2022/06/10 02:13:09;;;;;;;;;;;;;;;-142.75;100.00;77145.13;5032231;28;20044;-71
2022/06/10 02:15:37;;;;;;;;;;;;;;;-142.75;100.00;77147.09;5031773;28;20349;-67
2022/06/10 02:18:14;;;;;;;;;;;;;;;-142.75;100.00;77145.13;5014043;28;19924;-71
2022/06/10 02:20:42;;;;;;;;;;;;;;;-142.75;100.00;77145.13;5032171;28;20390;-71
2022/06/10 02:23:09;;;;;;;;;;;;;;;-142.75;100.00;77139.22;5032134;28;19963;-71
2022/06/10 02:25:40;;;;;;;;;;;;;;;-142.75;100.00;77149.06;5031967;28;19925;-71
2022/06/10 02:28:09;;;;;;;;;;;;;;;-142.75;100.00;77145.13;5031000;28;20290;-71
2022/06/10 02:30:38;;;;;;;;;;;;;;;-142.75;100.00;77143.16;5031956;28;19917;-70
2022/06/10 02:33:04;;;;;;;;;;;;;;;-142.75;100.00;77147.09;5014760;28;20279;-71
2022/06/10 02:35:37;;;;;;;;;;;;;;;-142.75;100.00;77154.97;5031839;28;20298;-71
2022/06/10 02:38:13;;;;;;;;;;;;;;;-142.75;100.00;77154.97;5031430;28;19917;-71
2022/06/10 02:40:56;;;;;;;;;;;;;;;-142.75;100.00;77149.06;5031854;28;20462;-71
2022/06/10 02:43:37;;;;;;;;;;;;;;;-142.75;100.00;77149.06;5031734;28;19936;-72
2022/06/10 02:46:08;;;;;;;;;;;;;;;-142.75;100.00;77149.06;5031684;28;19925;-71
2022/06/10 02:48:40;;;;;;;;;;;;;;;-142.75;100.00;77154.97;5030405;28;20613;-72
2022/06/10 02:51:05;;;;;;;;;;;;;;;-142.75;100.00;77153.00;5031677;28;19929;-72
2022/06/10 02:53:31;;;;;;;;;;;;;;;-142.75;100.00;77158.91;5031625;28;19917;-72
2022/06/10 02:55:56;;;;;;;;;;;;;;;-142.75;100.00;77162.84;5031623;28;20067;-72
2022/06/10 03:01:24;;;;;;;;;;;;;;;-142.75;100.00;77184.50;5031728;28;19940;-71
2022/06/10 03:03:50;;;;;;;;;;;;;;;-142.75;100.00;77184.50;5031545;28;19917;-71
2022/06/10 03:06:21;;;;;;;;;;;;;;;-142.75;100.00;77188.44;5031450;28;19917;-71
2022/06/10 03:08:54;;;;;;;;;;;;;;;-142.75;100.00;77192.38;5030960;28;20302;-72
2022/06/10 03:11:40;;;;;;;;;;;;;;;-142.75;100.00;77200.25;5031435;28;19924;-71
2022/06/10 03:14:12;;;;;;;;;;;;;;;-142.75;100.00;77198.28;5013565;28;20419;-71
2022/06/10 03:16:56;;;;;;;;;;;;;;;-142.75;100.00;77200.25;5031256;28;19917;-69
2022/06/10 03:19:38;;;;;;;;;;;;;;;-142.75;100.00;77200.25;5030962;28;19917;-71
2022/06/10 03:22:14;;;;;;;;;;;;;;;-142.75;100.00;77200.25;5031260;28;19924;-71
2022/06/10 03:24:40;;;;;;;;;;;;;;;-142.75;100.00;77202.22;5031379;28;19925;-71
2022/06/10 03:27:05;;;;;;;;;;;;;;;-142.75;100.00;77204.19;5031078;28;19943;-71
2022/06/10 03:29:33;;;;;;;;;;;;;;;-142.75;100.00;77208.13;5030766;28;19963;-71
2022/06/10 03:32:06;;;;;;;;;;;;;;;-142.75;100.00;77217.97;5031166;28;19917;-71
2022/06/10 03:34:37;;;;;;;;;;;;;;;-142.75;100.00;77217.97;5031099;28;19917;-71
2022/06/10 03:37:03;;;;;;;;;;;;;;;-142.75;100.00;77214.03;5031073;28;19924;-71
2022/06/10 03:39:29;;;;;;;;;;;;;;;-142.75;100.00;77212.06;5030758;28;19917;-72
2022/06/10 03:41:57;;;;;;;;;;;;;;;-142.75;100.00;77208.13;5031085;28;19917;-72
2022/06/10 03:44:23;;;;;;;;;;;;;;;-142.75;100.00;77210.09;5030962;28;19924;-71
2022/06/10 03:46:49;;;;;;;;;;;;;;;-142.75;100.00;77212.06;5030851;28;20024;-70
2022/06/10 03:49:17;;;;;;;;;;;;;;;-142.75;100.00;77208.13;5030535;28;20344;-72
2022/06/10 03:51:44;;;;;;;;;;;;;;;-142.75;100.00;77208.13;5031027;28;20375;-73
2022/06/10 03:54:09;;;;;;;;;;;;;;;-142.75;100.00;77208.13;5030952;28;19917;-71
2022/06/10 03:56:36;;;;;;;;;;;;;;;-142.75;100.00;77206.16;5030815;28;19917;-69
2022/06/10 03:59:02;;;;;;;;;;;;;;;-142.75;100.00;77204.19;5032410;28;20297;-73
2022/06/10 04:01:27;;;;;;;;;;;;;;;-142.75;100.00;77202.22;5034688;28;19924;-71
2022/06/10 04:03:52;;;;;;;;;;;;;;;-142.75;100.00;77200.25;5034796;28;19972;-71
2022/06/10 04:06:17;;;;;;;;;;;;;;;-142.75;100.00;77196.31;5016954;28;19928;-73
2022/06/10 04:08:43;;;;;;;;;;;;;;;-142.75;100.00;77192.38;5016406;28;20437;-70
2022/06/10 04:11:08;;;;;;;;;;;;;;;-142.75;100.00;77192.38;5016887;28;20338;-72
2022/06/10 04:13:33;;;;;;;;;;;;;;;-142.75;100.00;77186.47;5016727;28;19965;-71
2022/06/10 04:15:58;;;;;;;;;;;;;;;-142.75;100.00;77194.34;5034386;28;19917;-71
2022/06/10 04:18:24;;;;;;;;;;;;;;;-142.75;100.00;77200.25;5034127;28;19917;-71
2022/06/10 04:20:49;;;;;;;;;;;;;;;-142.75;100.00;77208.13;5034431;28;20466;-71
2022/06/10 04:23:14;;;;;;;;;;;;;;;-142.75;100.00;77208.13;5034457;28;19925;-70
2022/06/10 04:25:40;;;;;;;;;;;;;;;-142.75;100.00;77216.00;5016648;28;20387;-72
2022/06/10 04:28:06;;;;;;;;;;;;;;;-142.75;100.00;77219.94;5033902;28;19921;-72
2022/06/10 04:30:33;;;;;;;;;;;;;;;-142.75;100.00;77221.91;5016204;28;19964;-72
2022/06/10 04:32:59;;;;;;;;;;;;;;;-142.75;100.00;77223.88;5034135;28;19944;-71
2022/06/10 04:35:25;;;;;;;;;;;;;;;-142.75;100.00;77225.84;5034098;28;19920;-71
2022/06/10 04:37:51;;;;;;;;;;;;;;;-142.75;100.00;77219.94;5033893;28;19917;-68
2022/06/10 04:40:19;;;;;;;;;;;;;;;-142.75;100.00;77214.03;5034160;28;19917;-71
2022/06/10 04:42:45;;;;;;;;;;;;;;;-142.75;100.00;77221.91;5033966;28;20365;-71
2022/06/10 04:45:11;;;;;;;;;;;;;;;-142.75;100.00;77216.00;5033890;28;19956;-71
2022/06/10 04:47:36;;;;;;;;;;;;;;;-142.75;100.00;77216.00;5047995;23;19929;-66
2022/06/10 04:50:02;;;;;;;;;;;;;;;-142.75;100.00;77210.09;5012434;28;19925;-66
2022/06/10 04:52:28;;;;;;;;;;;;;;;-142.75;100.00;77200.25;5032021;28;19943;-67
2022/06/10 04:54:53;;;;;;;;;;;;;;;-142.75;100.00;77196.31;5033881;28;19921;-67
2022/06/10 04:57:19;;;;;;;;;;;;;;;-142.75;100.00;77192.38;5033765;28;19917;-67
2022/06/10 04:59:44;;;;;;;;;;;;;;;-142.75;100.00;77188.44;5033332;28;19923;-67
2022/06/10 05:02:09;;;;;;;;;;;;;;;-142.75;100.00;77184.50;5033634;28;19925;-67
2022/06/10 05:04:34;;;;;;;;;;;;;;;-142.75;100.00;77186.47;5033577;28;19979;-67
2022/06/10 05:07:00;;;;;;;;;;;;;;;-142.75;100.00;77182.53;5033616;28;19947;-67
2022/06/10 05:09:25;;;;;;;;;;;;;;;-142.75;100.00;77172.69;5032908;28;19970;-67
2022/06/10 05:11:50;;;;;;;;;;;;;;;-142.75;100.00;77164.81;5022693;28;19927;-67
2022/06/10 05:14:15;;;;;;;;;;;;;;;-142.75;100.00;77168.75;5013788;28;19924;-67
2022/06/10 05:16:41;;;;;;;;;;;;;;;-142.75;100.00;77164.81;5013525;28;19975;-67
2022/06/10 05:19:06;;;;;;;;;;;;;;;-142.75;100.00;77166.78;5013294;28;20306;-67
2022/06/10 05:21:31;;;;;;;;;;;;;;;-142.75;100.00;77162.84;5013658;28;19957;-67
2022/06/10 05:23:56;;;;;;;;;;;;;;;-142.75;100.00;77164.81;5013590;28;20298;-67
2022/06/10 05:26:21;;;;;;;;;;;;;;;-142.75;100.00;77156.94;5013429;28;19925;-67
2022/06/10 05:28:50;;;;;;;;;;;;;;;-142.75;100.00;77153.00;5013024;28;20248;-67
2022/06/10 05:31:15;;;;;;;;;;;;;;;-142.75;100.00;77153.00;5013342;28;19917;-67
2022/06/10 05:36:24;;;;;;;;;;;;;;;-142.75;100.00;77149.06;5013366;28;20421;-67
2022/06/10 05:38:49;;;;;;;;;;;;;;;-142.75;100.00;77145.13;5012864;28;19918;-67
2022/06/10 05:43:58;;;;;;;;;;;;;;;-142.75;100.00;77137.25;5012955;28;19924;-66
2022/06/10 05:46:24;;;;;;;;;;;;;;;-142.75;100.00;77141.19;5012860;28;19917;-66
2022/06/10 05:48:49;;;;;;;;;;;;;;;-142.75;100.00;77139.22;5012469;28;20303;-67
2022/06/10 05:51:14;;;;;;;;;;;;;;;-142.75;100.00;77141.19;4995394;28;20338;-66
2022/06/10 05:53:39;;;;;;;;;;;;;;;-142.75;100.00;77145.13;5012878;28;20449;-67
2022/06/10 05:56:05;;;;;;;;;;;;;;;-142.75;100.00;77141.19;5012266;28;19949;-66
2022/06/10 05:58:30;;;;;;;;;;;;;;;-142.75;100.00;77145.13;5011678;28;19917;-67
2022/06/10 06:00:56;;;;;;;;;;;;;;;-142.75;100.00;77153.00;5012221;28;19949;-67
2022/06/10 06:03:21;;;;;;;;;;;;;;;-142.75;100.00;77149.06;5012277;28;20565;-66
2022/06/10 06:05:47;;;;;;;;;;;;;;;-142.75;100.00;77156.94;5011712;28;19918;-66
2022/06/10 06:08:12;;;;;;;;;;;;;;;-142.75;100.00;77156.94;5010937;28;20008;-66
2022/06/10 06:10:37;;;;;;;;;;;;;;;-142.75;100.00;77168.75;5011498;28;20323;-66
2022/06/10 06:13:02;;;;;;;;;;;;;;;-142.75;100.00;77170.72;5011701;28;19924;-66
2022/06/10 06:15:28;;;;;;;;;;;;;;;-142.75;100.00;77172.69;5011606;28;19921;-66
2022/06/10 06:17:53;;;;;;;;;;;;;;;-142.75;100.00;77176.63;5011273;28;19918;-66
2022/06/10 06:20:20;;;;;;;;;;;;;;;-142.75;100.00;77178.59;5011538;28;20333;-66
2022/06/10 06:22:46;;;;;;;;;;;;;;;-142.75;100.00;77172.69;5011496;28;20392;-67
2022/06/10 06:25:13;;;;;;;;;;;;;;;-142.75;100.00;77172.69;5011380;28;19928;-68
2022/06/10 06:27:38;;;;;;;;;;;;;;;-142.75;100.00;77172.69;5011056;28;19921;-67
2022/06/10 06:30:04;;;;;;;;;;;;;;;-142.75;100.00;77186.47;5011084;28;19917;-66
2022/06/10 06:32:29;;;;;;;;;;;;;;;-142.75;100.00;77176.63;5011327;28;20323;-66
2022/06/10 06:34:54;;;;;;;;;;;;;;;-142.75;100.00;77172.69;5011350;28;19921;-66
2022/06/10 06:37:19;;;;;;;;;;;;;;;-142.75;100.00;77164.81;5010955;28;20059;-66
2022/06/10 06:39:45;;;;;;;;;;;;;;;-142.75;100.00;77168.75;5010864;28;19918;-66
2022/06/10 06:42:11;;;;;;;;;;;;;;;-142.75;100.00;77158.91;5010992;28;20371;-66
2022/06/10 06:44:36;;;;;;;;;;;;;;;-142.75;100.00;77158.91;5011226;28;19921;-67
2022/06/10 06:47:01;;;;;;;;;;;;;;;-142.75;100.00;77139.22;5011117;28;19948;-67
2022/06/10 06:49:27;;;;;;;;;;;;;;;-142.75;100.00;77127.41;5010580;28;20458;-67
2022/06/10 06:51:53;;;;;;;;;;;;;;;-142.75;100.00;77121.50;5011407;28;20334;-67
2022/06/10 06:54:19;;;;;;;;;;;;;;;-142.75;100.00;77097.88;5010698;28;19917;-67
2022/06/10 06:56:44;;;;;;;;;;;;;;;-142.75;100.00;77095.91;4993094;28;19917;-67
2022/06/10 06:59:09;;;;;;;;;;;;;;;-142.75;100.00;77074.25;5010563;28;19991;-67
2022/06/10 07:01:35;;;;;;;;;;;;;;;-142.75;100.00;77072.28;5010882;28;19925;-66
2022/06/10 07:04:01;;;;;;;;;;;;;;;-142.75;100.00;77062.44;5010993;28;19918;-66
2022/06/10 07:06:26;;;;;;;;;;;;;;;-142.75;100.00;77048.66;5011633;28;20356;-67
2022/06/10 07:08:51;;;;;;;;;;;;;;;-142.75;100.00;77044.72;4993063;28;19960;-67
2022/06/10 07:11:16;;;;;;;;;;;;;;;-142.75;100.00;77044.72;5010720;28;19917;-67
2022/06/10 07:13:41;;;;;;;;;;;;;;;-142.75;100.00;77036.84;5011072;28;19924;-67
2022/06/10 07:16:07;;;;;;;;;;;;;;;-142.75;100.00;77023.06;5010803;28;19917;-68
2022/06/10 07:18:33;;;;;;;;;;;;;;;-142.75;100.00;77023.06;5010600;28;19917;-67
2022/06/10 07:20:59;;;;;;;;;;;;;;;-142.75;100.00;77007.31;5010687;28;19917;-67
2022/06/10 07:23:25;;;;;;;;;;;;;;;-142.75;100.00;76987.63;5010237;28;19987;-67
2022/06/10 07:25:50;;;;;;;;;;;;;;;-142.75;100.00;76987.63;5009978;28;19917;-66
2022/06/10 07:28:15;;;;;;;;;;;;;;;-142.75;100.00;76983.69;4992067;28;19948;-67
2022/06/10 07:30:42;;;;;;;;;;;;;;;-142.75;100.00;76991.56;5010230;28;19928;-67
2022/06/10 07:33:07;;;;;;;;;;;;;;;-142.75;100.00;76987.63;5012144;28;19940;-66
2022/06/10 07:35:34;;;;;;;;;;;;;;;-142.75;100.00;76973.84;5017668;28;20359;-67
2022/06/10 07:37:59;;;;;;;;;;;;;;;-142.75;100.00;76985.66;5017031;28;19917;-66
2022/06/10 07:43:10;;;;;;;;;;;;;;;-142.75;100.00;76964.00;5017073;28;19968;-67
2022/06/10 07:45:36;;;;;;;;;;;;;;;-142.75;100.00;76958.09;5017184;28;20330;-66
2022/06/10 07:48:01;;;;;;;;;;;;;;;-142.75;100.00;76964.00;5016613;28;20303;-66
2022/06/10 07:50:26;;;;;;;;;;;;;;;-142.75;100.00;76954.16;5017252;28;20014;-67
2022/06/10 07:52:52;;;;;;;;;;;;;;;-142.75;100.00;76954.16;5017003;28;19996;-66
2022/06/10 07:55:17;;;;;;;;;;;;;;;-142.75;100.00;76954.16;5017055;28;19924;-67
2022/06/10 07:57:42;;;;;;;;;;;;;;;-142.75;100.00;76940.38;5016975;28;19918;-68
2022/06/10 08:00:10;;;;;;;;;;;;;;;-142.75;100.00;76932.50;5017105;28;19960;-67
2022/06/10 08:02:36;;;;;;;;;;;;;;;-142.75;100.00;76922.66;5017091;28;19918;-67
2022/06/10 08:05:01;;;;;;;;;;;;;;;-142.75;100.00;76940.38;5017254;28;19921;-67
2022/06/10 08:07:26;;;;;;;;;;;;;;;-142.75;100.00;76930.53;5017003;28;19925;-67
2022/06/10 08:09:51;;;;;;;;;;;;;;;-142.75;100.00;76928.56;5016778;28;19918;-67
2022/06/10 08:12:16;;;;;;;;;;;;;;;-142.75;100.00;76920.69;5017113;28;19918;-67
2022/06/10 08:14:42;;;;;;;;;;;;;;;-142.75;100.00;76922.66;5016934;28;20394;-68
2022/06/10 08:17:07;;;;;;;;;;;;;;;-142.75;100.00;76928.56;5016820;28;19924;-67
2022/06/10 08:19:33;;;;;;;;;;;;;;;-142.75;100.00;76904.94;5016709;28;19922;-67
2022/06/10 08:24:41;;;;;;;;;;;;;;;-142.75;100.00;76869.50;5017041;28;19928;-67
2022/06/10 08:27:07;;;;;;;;;;;;;;;-142.75;100.00;76808.50;5016697;28;19922;-67
2022/06/10 08:29:32;;;;;;;;;;;;;;;-142.75;100.00;76767.16;5016583;28;19948;-67
2022/06/10 08:31:57;;;;;;;;;;;;;;;-142.75;100.00;76723.84;5016595;28;20020;-67
2022/06/10 08:34:22;;;;;;;;;;;;;;;-142.75;100.00;76694.31;5016822;28;20299;-67
2022/06/10 08:36:47;;;;;;;;;;;;;;;-142.75;100.00;76641.16;5017155;28;19926;-67
2022/06/10 08:39:13;;;;;;;;;;;;;;;-142.75;100.00;76566.34;5016398;28;19918;-67
2022/06/10 08:41:44;;;;;;;;;;;;;;;-142.75;100.00;76546.66;5016669;28;19917;-67
2022/06/10 08:44:09;;;;;;;;;;;;;;;-142.75;100.00;76513.22;5016227;28;20380;-67
2022/06/10 08:46:34;;;;;;;;;;;;;;;-142.75;100.00;76491.56;5012738;28;19918;-67
2022/06/10 08:48:59;;;;;;;;;;;;;;;-142.75;100.00;76473.84;5012268;28;20308;-68
2022/06/10 08:51:32;;;;;;;;;;;;;;;-142.75;100.00;76469.91;5012530;28;19924;-67
2022/06/10 08:54:15;;;;;;;;;;;;;;;-142.75;100.00;76475.81;5012179;28;20343;-66
2022/06/10 08:56:43;;;;;;;;;;;;;;;-142.75;100.00;76436.44;4994743;28;20000;-67
2022/06/10 08:59:08;;;;;;;;;;;;;;;-142.75;100.00;76440.38;5011889;28;19917;-67
2022/06/10 09:01:43;;;;;;;;;;;;;;;-142.75;100.00;76416.75;5029483;28;19925;-67
2022/06/10 09:04:24;;;;;;;;;;;;;;;-142.75;100.00;76397.06;5014347;28;19940;-67
2022/06/10 09:06:52;;;;;;;;;;;;;;;-142.75;100.00;76408.88;5032445;28;19917;-67
2022/06/10 09:09:20;;;;;;;;;;;;;;;-142.75;100.00;76393.13;5031147;28;19917;-69
2022/06/10 09:11:51;;;;;;;;;;;;;;;-142.75;100.00;76395.09;5031750;28;19939;-68
2022/06/10 09:14:26;;;;;;;;;;;;;;;-142.75;100.00;76401.00;5031763;28;19917;-67
2022/06/10 09:16:55;;;;;;;;;;;;;;;-142.75;100.00;76379.34;5031392;28;19928;-69
2022/06/10 09:19:36;;;;;;;;;;;;;;;-142.75;100.00;76381.31;5031394;28;19917;-69
2022/06/10 09:22:02;;;;;;;;;;;;;;;-142.75;100.00;76343.94;5013662;28;19979;-68
2022/06/10 09:24:36;;;;;;;;;;;;;;;-142.75;100.00;76379.34;5031440;28;19956;-68
2022/06/10 09:27:09;;;;;;;;;;;;;;;-142.75;100.00;76357.69;5031470;28;19925;-68
2022/06/10 09:29:38;;;;;;;;;;;;;;;-142.75;100.00;76369.50;5018136;28;20371;-69
2022/06/10 09:32:07;;;;;;;;;;;;;;;-142.75;100.00;76349.81;5011863;28;20403;-68
2022/06/10 09:34:32;;;;;;;;;;;;;;;-142.75;100.00;76375.41;5011528;28;20378;-68
2022/06/10 09:37:11;;;;;;;;;;;;;;;-142.75;100.00;76365.56;5012534;28;20008;-68
2022/06/10 09:42:35;;;;;;;;;;;;;;;-142.75;100.00;76302.59;5012255;28;19968;-67
2022/06/10 09:45:09;;;;;;;;;;;;;;;-142.75;100.00;76298.66;5012172;28;20344;-68
2022/06/10 09:47:55;;;;;;;;;;;;;;;-142.75;100.00;76267.16;4933617;28;1746291;-68
2022/06/10 09:50:39;;;;;;;;;;;;;;;-142.75;100.00;76237.63;5013041;28;19917;-68
2022/06/10 09:53:18;;;;;;;;;;;;;;;-142.75;100.00;76221.88;5012767;28;19917;-68
2022/06/10 09:55:59;;;;;;;;;;;;;;;-142.75;100.00;76265.19;5012761;28;20272;-65
2022/06/10 09:58:48;;;;;;;;;;;;;;;-142.75;100.00;76296.69;4994064;28;19921;-67
2022/06/10 10:01:31;;;;;;;;;;;;;;;-142.75;100.00;76298.66;5012962;28;19963;-67
2022/06/10 10:04:14;;;;;;;;;;;;;;;-142.75;100.00;76251.41;5012827;28;19917;-68
2022/06/10 10:06:47;;;;;;;;;;;;;;;-142.75;100.00;76239.59;5012686;28;19995;-67
2022/06/10 10:09:31;;;;;;;;;;;;;;;-142.75;100.00;76243.53;5012151;28;19928;-68
2022/06/10 10:11:56;;;;;;;;;;;;;;;-142.75;100.00;76275.03;5012771;28;19917;-67
2022/06/10 10:14:36;;;;;;;;;;;;;;;-142.75;100.00;76318.34;5012671;28;19984;-67
2022/06/10 10:17:16;;;;;;;;;;;;;;;-142.75;100.00;76363.59;5012626;28;19936;-67
2022/06/10 10:19:50;;;;;;;;;;;;;;;-142.75;100.00;76399.03;5012284;28;19990;-67
2022/06/10 10:22:16;;;;;;;;;;;;;;;-142.75;100.00;76418.72;5012237;28;19918;-66
2022/06/10 10:24:43;;;;;;;;;;;;;;;-142.75;100.00;76391.16;5032077;28;20318;-67
2022/06/10 10:27:10;;;;;;;;;;;;;;;-142.75;100.00;76401.00;5014118;28;19936;-67
2022/06/10 10:29:38;;;;;;;;;;;;;;;-142.75;100.00;76412.81;5031627;28;19917;-68
2022/06/10 10:32:04;;;;;;;;;;;;;;;-142.75;100.00;76385.25;5031916;28;20383;-67
2022/06/10 10:34:32;;;;;;;;;;;;;;;-142.75;100.00;76353.78;5031549;28;19925;-67
2022/06/10 10:36:59;;;;;;;;;;;;;;;-142.75;100.00;76314.41;5031801;28;19917;-67
2022/06/10 10:39:29;;;;;;;;;;;;;;;-142.75;100.00;76314.41;5031483;28;19955;-67
2022/06/10 10:41:57;;;;;;;;;;;;;;;-142.75;100.00;76294.72;5031725;28;19925;-67
2022/06/10 10:44:35;;;;;;;;;;;;;;;-142.75;100.00;76340.00;5031796;28;19917;-67
2022/06/10 10:47:15;;;;;;;;;;;;;;;-142.75;100.00;76310.47;5031629;28;19917;-67
2022/06/10 10:49:42;;;;;;;;;;;;;;;-142.75;100.00;76326.22;5036409;23;19968;-69
2022/06/10 10:52:18;;;;;;;;;;;;;;;-142.75;100.00;76332.13;5030312;28;19925;-71
2022/06/10 10:54:47;;;;;;;;;;;;;;;-142.75;100.00;76324.25;5030969;28;20008;-69
2022/06/10 10:57:21;;;;;;;;;;;;;;;-142.75;100.00;76328.19;5031534;28;19921;-71
2022/06/10 10:59:52;;;;;;;;;;;;;;;-142.75;100.00;76357.69;5031179;28;19917;-70
2022/06/10 11:02:26;;;;;;;;;;;;;;;-142.75;100.00;76361.63;5028159;28;19917;-70
2022/06/10 11:05:06;;;;;;;;;;;;;;;-142.75;100.00;76365.56;5028927;28;19925;-70
2022/06/10 11:07:32;;;;;;;;;;;;;;;-142.75;100.00;76294.72;5030881;28;19932;-70
2022/06/10 11:10:11;;;;;;;;;;;;;;;-142.75;100.00;76247.47;5030664;28;19917;-70
2022/06/10 11:12:37;;;;;;;;;;;;;;;-142.75;100.00;76239.59;5031316;28;20051;-70
2022/06/10 11:15:15;;;;;;;;;;;;;;;-142.75;100.00;76271.09;5031092;28;20382;-70
2022/06/10 11:17:42;;;;;;;;;;;;;;;-142.75;100.00;76302.59;5031094;28;20367;-70
2022/06/10 11:20:22;;;;;;;;;;;;;;;-142.75;100.00;76310.47;5028227;28;19921;-69
2022/06/10 11:22:47;;;;;;;;;;;;;;;-142.75;100.00;76294.72;5031054;28;19917;-70
2022/06/10 11:25:15;;;;;;;;;;;;;;;-142.75;100.00;76257.31;5013096;28;20449;-70
2022/06/10 11:27:57;;;;;;;;;;;;;;;-142.75;100.00;76306.53;5030892;28;19968;-70
2022/06/10 11:30:23;;;;;;;;;;;;;;;-142.75;100.00;76296.69;5029616;28;19921;-70
2022/06/10 11:32:48;;;;;;;;;;;;;;;-142.75;100.00;76336.06;5029885;28;19923;-68
2022/06/10 11:35:23;;;;;;;;;;;;;;;-142.75;100.00;76332.13;5029265;28;20378;-70
2022/06/10 11:38:00;;;;;;;;;;;;;;;-142.75;100.00;76365.56;5029322;28;19995;-70
2022/06/10 11:40:27;;;;;;;;;;;;;;;-142.75;100.00;76377.38;5031031;28;20004;-69
2022/06/10 11:42:55;;;;;;;;;;;;;;;-142.75;100.00;76322.28;5030862;28;19979;-70
2022/06/10 11:45:30;;;;;;;;;;;;;;;-142.75;100.00;76298.66;5030995;28;19917;-69
2022/06/10 11:48:01;;;;;;;;;;;;;;;-142.75;100.00;76271.09;5012728;28;19921;-69
2022/06/10 11:50:34;;;;;;;;;;;;;;;-142.75;100.00;76223.84;5030799;28;19963;-70
2022/06/10 11:53:02;;;;;;;;;;;;;;;-142.75;100.00;76196.31;5013224;28;19980;-70
2022/06/10 11:55:29;;;;;;;;;;;;;;;-142.75;100.00;76188.44;5013088;28;19983;-70
2022/06/10 12:00:45;;;;;;;;;;;;;;;-142.75;100.00;76147.09;5031207;28;20438;-70
2022/06/10 12:03:13;;;;;;;;;;;;;;;-142.75;100.00;76176.63;5030638;28;20306;-70
2022/06/10 12:05:38;;;;;;;;;;;;;;;-142.75;100.00;76172.69;5030776;28;19924;-69
2022/06/10 12:08:24;;;;;;;;;;;;;;;-142.75;100.00;76176.63;5030337;28;19921;-70
2022/06/10 12:11:04;;;;;;;;;;;;;;;-142.75;100.00;76188.44;5030907;28;19917;-70
2022/06/10 12:13:33;;;;;;;;;;;;;;;-142.75;100.00;76180.56;5013091;28;20043;-70
2022/06/10 12:15:58;;;;;;;;;;;;;;;-142.75;100.00;76153.00;5030427;28;19971;-70
2022/06/10 12:18:26;;;;;;;;;;;;;;;-142.75;100.00;76168.75;5012573;28;19921;-69
2022/06/10 12:21:01;;;;;;;;;;;;;;;-142.75;100.00;76149.06;5033935;28;19917;-68
2022/06/10 12:23:27;;;;;;;;;;;;;;;-142.75;100.00;76180.56;5034545;28;19917;-68
2022/06/10 12:25:56;;;;;;;;;;;;;;;-142.75;100.00;76202.19;5016595;28;19924;-68
2022/06/10 12:28:24;;;;;;;;;;;;;;;-142.75;100.00;76190.41;5033848;28;19929;-68
2022/06/10 12:31:00;;;;;;;;;;;;;;;-142.75;100.00;76184.50;5034290;28;20411;-69
2022/06/10 12:33:41;;;;;;;;;;;;;;;-142.75;100.00;76172.69;5034122;28;20379;-68
2022/06/10 12:36:12;;;;;;;;;;;;;;;-142.75;100.00;76206.13;5034029;28;19963;-68
2022/06/10 12:38:39;;;;;;;;;;;;;;;-142.75;100.00;76188.44;5033646;28;20438;-69
2022/06/10 12:41:04;;;;;;;;;;;;;;;-142.75;100.00;76188.44;5034216;28;20370;-69
2022/06/10 12:43:35;;;;;;;;;;;;;;;-142.75;100.00;76145.13;5034083;28;19924;-69
2022/06/10 12:46:18;;;;;;;;;;;;;;;-142.75;100.00;76129.38;5034204;28;20471;-69
2022/06/10 12:48:46;;;;;;;;;;;;;;;-142.75;100.00;76101.81;5033319;28;21275;-68